Latest Weather Observations for Casey (Wilkins Runway)*

IDT60801

Issued at 3:35 pm EDT Thursday 27 November 2014 (issued every 30 minutes, with the page automatically refreshed every 10 minutes)

About weather observations | Map of weather stations | Latest weather observations for ANT | Other Formats
Station Details ID: 300050 Name: WILKINS RUNWAY EAST Lat: -66.68 Lon: 111.53 Height: 753.0 m
Data from the previous 72 hours. | See also: Recent months for locations in Antarctica
Date/Time
EDT
Temp
°C
App
Temp
°C
Dew
Point
Rel
Hum
%
Delta-T
°C
Wind Press
QNH
hPa
Press
MSL
hPa
Rain
since 9 am
mm
Dir
 
Spd
km/h
Gust
km/h
Spd
kts
Gust
kts
27/03:30pm -8.8 -20.4 -12.1 77 - E 44 57 24 31 980.9 - -
27/03:00pm -8.9 -20.9 -12.5 75 - E 46 54 25 29 980.7 - -
27/02:51pm -9.1 -21.9 -13.0 73 - E 50 59 27 32 980.5 - -
27/02:40pm -9.1 -21.1 -13.2 72 - E 46 59 25 32 980.4 - -
27/02:30pm -9.1 -21.1 -12.9 74 - E 46 54 25 29 980.5 - -
27/02:00pm -9.1 -21.8 -12.5 76 - ESE 50 57 27 31 980.4 - -
27/01:52pm -9.2 -22.0 -13.0 74 - ESE 50 57 27 31 980.2 - -
27/01:33pm -9.2 -21.9 -12.6 76 - ESE 50 61 27 33 980.2 - -
27/01:30pm -9.2 -21.9 -12.3 78 - ESE 50 57 27 31 980.2 - -
27/01:04pm -9.2 -22.7 -12.6 76 - ESE 54 70 29 38 979.9 - -
27/01:00pm -9.3 -22.8 -12.9 75 - ESE 54 70 29 38 980.1 - -
27/12:57pm -9.3 -22.1 -13.2 73 - ESE 50 70 27 38 979.4 - -
27/12:55pm -9.2 -21.6 -12.6 76 - ESE 48 59 26 32 979.8 - -
27/12:34pm -9.1 -21.1 -12.4 77 - ESE 46 54 25 29 980.1 - -
27/12:30pm -8.9 -20.8 -12.2 77 - ESE 46 54 25 29 980.0 - -
27/12:20pm -9.0 -21.0 -12.3 77 - ESE 46 54 25 29 980.0 - -
27/12:01pm -9.2 -21.5 -12.5 77 - ESE 48 57 26 31 980.3 - -
27/11:30am -9.1 -20.5 -12.9 74 - ESE 43 54 23 29 980.4 - -
27/11:00am -8.7 -21.8 -13.2 70 - ESE 52 61 28 33 980.0 - -
27/10:53am -8.7 -22.2 -13.0 71 - ESE 54 61 29 33 979.8 - -
27/10:30am -8.7 -22.6 -13.0 71 - ESE 56 63 30 34 979.8 - -
27/10:18am -8.9 -22.8 -12.8 73 - ESE 56 63 30 34 979.7 - -
27/10:00am -9.2 -20.8 -12.6 76 - ESE 44 54 24 29 980.4 - -
27/09:30am -9.3 -22.4 -12.7 76 - ESE 52 67 28 36 980.3 - -
27/09:00am -9.3 -23.2 -12.7 76 - ESE 56 69 30 37 980.1 - -
27/08:30am -9.4 -22.1 -12.0 81 - E 50 67 27 36 979.9 - -
27/08:10am -9.6 -23.6 -12.2 81 - E 57 76 31 41 979.6 - -
27/08:00am -9.8 -24.2 -12.1 83 - E 59 67 32 36 979.9 - -
27/07:42am -9.9 -23.0 -12.1 84 - E 52 63 28 34 980.1 - -
27/07:30am -10.0 -21.4 -12.3 83 - ESE 43 56 23 30 980.4 - -
27/07:14am -10.0 -22.4 -12.8 80 - E 48 63 26 34 980.9 - -
27/07:00am -9.9 -24.0 -12.8 79 - E 57 67 31 36 980.1 - -
27/06:30am -10.0 -25.2 -12.3 83 - ESE 63 76 34 41 979.7 - -
27/06:00am -9.8 -23.7 -12.3 82 - E 56 63 30 34 980.5 - -
27/05:32am -9.5 -23.3 -12.1 81 - E 56 70 30 38 980.4 - -
27/05:30am -9.6 -23.1 -12.2 81 - E 54 67 29 36 980.8 - -
27/05:00am -9.3 -21.2 -12.1 80 - ESE 46 72 25 39 981.1 - -
27/04:58am -9.4 -19.6 -12.3 79 - ESE 37 72 20 39 981.6 - -
27/04:55am -9.1 -24.7 -12.2 78 - E 65 72 35 39 981.2 - -
27/04:41am -9.1 -20.6 -11.7 81 - E 44 63 24 34 981.6 - -
27/04:30am -8.7 -19.7 -11.8 78 - E 41 54 22 29 981.7 - -
27/04:00am -8.7 -22.2 -12.0 77 - E 54 59 29 32 982.3 - -
27/03:30am -8.6 -23.0 -11.7 78 - E 59 70 32 38 981.8 - -
27/03:02am -9.0 -22.5 -12.1 78 - E 54 72 29 39 982.6 - -
27/03:00am -8.9 -22.7 -12.2 77 - E 56 72 30 39 982.3 - -
27/02:46am -8.7 -20.1 -11.8 78 - ESE 43 65 23 35 982.4 - -
27/02:30am -8.8 -21.1 -12.1 77 - E 48 54 26 29 983.0 - -
27/02:00am -8.2 -17.5 -11.7 76 - E 32 39 17 21 983.8 - -
27/01:30am -7.7 -21.1 -10.7 79 - E 54 61 29 33 983.7 - -
27/01:00am -7.7 -21.4 -10.4 81 - E 56 65 30 35 983.8 - -
27/12:30am -7.6 -21.3 -10.4 80 - E 56 63 30 34 984.1 - -
27/12:22am -7.5 -21.4 -10.2 81 - E 57 70 31 38 983.9 - -
27/12:00am -7.4 -21.6 -9.8 83 - E 59 67 32 36 984.2 - -
 
Date/Time
EDT
Temp
°C
App
Temp
°C
Dew
Point
Rel
Hum
%
Delta-T
°C
Wind Press
QNH
hPa
Press
MSL
hPa
Rain
since 9 am
mm
Dir
 
Spd
km/h
Gust
km/h
Spd
kts
Gust
kts
26/11:30pm -7.4 -21.2 -9.3 86 - E 57 67 31 36 984.4 - -
26/11:08pm -7.3 -20.6 -9.4 85 - E 54 63 29 34 985.0 - -
26/11:00pm -7.3 -20.2 -9.2 86 - E 52 59 28 32 985.3 - -
26/10:30pm -7.1 -18.9 -9.6 82 - E 46 57 25 31 985.5 - -
26/10:07pm -7.0 -17.8 -9.9 80 - E 41 59 22 32 985.8 - -
26/10:00pm -6.9 -18.7 -10.6 75 - E 46 59 25 32 986.2 - -
26/09:30pm -6.3 -17.5 -10.0 75 - E 43 52 23 28 986.5 - -
26/09:00pm -6.4 -17.8 -9.9 76 - E 44 52 24 28 986.8 - -
26/08:30pm -6.4 -17.3 -10.1 75 - E 41 56 22 30 986.5 - -
26/08:00pm -6.4 -17.6 -9.4 79 - E 43 52 23 28 986.8 - -
26/07:30pm -6.4 -17.8 -9.9 76 - E 44 50 24 27 987.0 - -
26/07:00pm -6.6 -18.0 -9.9 77 - E 44 54 24 29 987.3 - -
26/06:53pm -6.7 -18.5 -9.7 79 - E 46 54 25 29 987.2 - -
26/06:35pm -6.6 -18.4 -9.5 80 - E 46 56 25 30 987.4 - -
26/06:30pm -6.7 -18.1 -9.7 79 - E 44 54 24 29 987.4 - -
26/06:23pm -6.6 -18.0 -9.5 80 - E 44 50 24 27 987.6 - -
26/06:00pm -6.4 -17.6 -9.8 77 - E 43 50 23 27 987.8 - -
26/05:30pm -6.4 -17.8 -9.8 77 - E 44 54 24 29 987.9 - -
26/05:00pm -6.4 -17.7 -9.0 82 - E 44 52 24 28 987.9 - -
26/04:30pm -6.6 -18.4 -9.8 78 - E 46 54 25 29 987.6 - -
26/04:00pm -6.5 -18.6 -9.5 79 - E 48 56 26 30 987.6 - -
26/03:30pm -7.0 -18.2 -9.5 82 - E 43 50 23 27 987.8 - -
26/03:00pm -7.5 -18.9 -9.9 83 - E 44 50 24 27 987.6 - -
26/02:30pm -7.9 -19.7 -10.6 81 - E 46 54 25 29 987.6 - -
26/02:00pm -8.2 -19.7 -10.6 83 - E 44 50 24 27 987.6 - -
26/01:30pm -8.2 -19.5 -10.4 84 - E 43 48 23 26 987.5 - -
26/01:00pm -8.5 -20.3 -10.6 85 - E 46 52 25 28 987.3 - -
26/12:30pm -8.7 -20.2 -10.8 85 - E 44 52 24 28 987.2 - -
26/12:00pm -8.9 -20.4 -11.0 85 - E 44 52 24 28 987.1 - -
26/11:30am -9.1 -21.0 -10.9 87 - E 46 52 25 28 986.9 - -
26/11:00am -9.4 -21.3 -11.2 87 - E 46 54 25 29 986.8 - -
26/10:30am -9.5 -21.8 -11.1 88 - E 48 56 26 30 986.7 - -
26/10:00am -9.7 -22.0 -11.3 88 - E 48 57 26 31 986.6 - -
26/09:30am -9.7 -22.0 -11.3 88 - E 48 57 26 31 986.2 - -
26/09:00am -9.7 -22.0 -11.3 88 - E 48 54 26 29 986.0 - -
26/08:30am -9.8 -22.1 -11.1 90 - E 48 56 26 30 985.9 - -
26/08:00am -9.9 -21.8 -11.4 89 - E 46 54 25 29 985.5 - -
26/07:30am -9.8 -21.1 -11.5 87 - E 43 59 23 32 985.2 - -
26/07:06am -9.9 -21.4 -11.6 87 - E 44 63 24 34 985.0 - -
26/07:00am -9.9 -21.8 -11.5 88 - E 46 63 25 34 984.5 - -
26/06:34am -9.8 -22.1 -12.1 83 - E 48 56 26 30 984.4 - -
26/06:30am -9.7 -22.4 -12.3 81 - E 50 61 27 33 984.3 - -
26/06:00am -9.7 -22.0 -12.5 80 - E 48 56 26 30 984.0 - -
26/05:30am -9.6 -22.7 -12.7 78 - E 52 61 28 33 983.8 - -
26/05:00am -9.6 -22.7 -12.7 78 - E 52 61 28 33 983.4 - -
26/04:49am -9.7 -22.4 -12.8 78 - E 50 57 27 31 983.4 - -
26/04:46am -9.6 -22.7 -12.9 77 - E 52 59 28 32 983.4 - -
26/04:32am -9.6 -23.1 -12.7 78 - E 54 61 29 33 983.3 - -
26/04:30am -9.6 -23.1 -12.9 77 - E 54 61 29 33 983.3 - -
26/04:26am -9.5 -23.4 -13.1 75 - E 56 63 30 34 983.3 - -
26/04:00am -9.6 -23.7 -12.7 78 - E 57 65 31 35 982.7 - -
26/03:30am -9.4 -22.9 -12.7 77 - E 54 63 29 34 982.6 - -
26/03:05am -9.5 -23.0 -12.6 78 - E 54 61 29 33 982.6 - -
26/03:00am -9.5 -22.6 -12.8 77 - E 52 61 28 33 982.7 - -
26/02:30am -9.5 -22.6 -12.6 78 - E 52 59 28 32 982.5 - -
26/02:00am -9.5 -23.4 -12.6 78 - E 56 63 30 34 982.4 - -
26/01:38am -9.2 -23.1 -12.5 77 - E 56 63 30 34 982.3 - -
26/01:30am -9.3 -22.0 -12.3 79 - E 50 61 27 33 982.2 - -
26/01:00am -9.3 -22.4 -12.1 80 - E 52 57 28 31 982.3 - -
26/12:52am -9.3 -22.8 -12.4 78 - E 54 61 29 33 982.2 - -
26/12:30am -9.2 -23.0 -12.2 79 - E 56 65 30 35 982.2 - -
26/12:00am -9.1 -22.9 -12.2 78 - E 56 65 30 35 981.9 - -
 
Date/Time
EDT
Temp
°C
App
Temp
°C
Dew
Point
Rel
Hum
%
Delta-T
°C
Wind Press
QNH
hPa
Press
MSL
hPa
Rain
since 9 am
mm
Dir
 
Spd
km/h
Gust
km/h
Spd
kts
Gust
kts
25/11:30pm -9.0 -23.0 -11.8 80 - E 57 67 31 36 981.9 - -
25/11:00pm -9.1 -23.9 -11.9 80 - E 61 72 33 39 981.7 - -
25/10:30pm -8.8 -23.6 -11.9 78 - E 61 69 33 37 981.6 - -
25/10:00pm -8.8 -23.2 -11.5 81 - E 59 70 32 38 981.6 - -
25/09:30pm -8.8 -23.5 -11.3 82 - E 61 72 33 39 981.6 - -
25/09:00pm -8.5 -22.2 -10.7 84 - E 56 74 30 40 981.8 - -
25/08:30pm -8.5 -23.2 -11.2 81 - E 61 74 33 40 981.5 - -
25/08:00pm -8.4 -22.4 -11.5 78 - E 57 70 31 38 981.3 - -
25/07:30pm -8.2 -23.0 -11.5 77 - E 61 69 33 37 981.5 - -
25/07:00pm -8.3 -23.1 -11.6 77 - E 61 72 33 39 981.3 - -
25/06:30pm -8.4 -23.9 -11.7 77 - E 65 76 35 41 981.3 - -
25/06:00pm -8.4 -23.9 -11.9 76 - E 65 74 35 40 981.0 - -
25/05:30pm -8.2 -23.3 -11.3 78 - E 63 76 34 41 981.0 - -
25/05:00pm -8.1 -24.0 -11.4 77 - E 67 76 36 41 980.8 - -
25/04:30pm -7.9 -23.0 -10.7 80 - E 63 72 34 39 980.7 - -
25/04:00pm -8.1 -23.9 -10.8 81 - E 67 78 36 42 980.4 - -
25/03:30pm -8.0 -24.2 -11.1 78 - E 69 82 37 44 980.4 - -
25/03:00pm -8.1 -23.6 -11.1 79 - E 65 80 35 43 980.4 - -
25/02:30pm -8.4 -23.2 -11.5 78 - E 61 74 33 40 981.0 - -
25/02:00pm -8.5 -23.3 -11.5 79 - E 61 72 33 39 981.1 - -
25/01:30pm -8.6 -23.3 -11.4 80 - E 61 74 33 40 981.2 - -
25/01:00pm -8.8 -23.6 -11.6 80 - E 61 72 33 39 981.1 - -
25/12:30pm -8.8 -23.2 -11.8 79 - E 59 69 32 37 981.3 - -
25/12:00pm -9.0 -23.8 -11.8 80 - E 61 72 33 39 980.7 - -
25/11:30am -8.9 -22.9 -11.4 82 - E 57 72 31 39 980.9 - -
25/11:20am -8.9 -23.7 -11.7 80 - E 61 82 33 44 980.5 - -
25/11:00am -9.1 -23.9 -11.7 81 - E 61 76 33 41 981.0 - -

Other Formats:

Comma delimited format used in spreadsheet applications
http://www.bom.gov.au/fwo/IDT60803/IDT60803.89615.axf

JavaScript Object Notation format (JSON) in row-major order
http://www.bom.gov.au/fwo/IDT60803/IDT60803.89615.json